createdAt,value
2023-02-06T00:01:27.131Z,8.27
2023-02-06T00:03:54.180Z,5.90
2023-02-06T00:06:21.067Z,7.00
2023-02-06T00:08:47.916Z,7.15
2023-02-06T00:11:16.934Z,5.28
2023-02-06T00:13:45.563Z,5.80
2023-02-06T00:16:33.400Z,4.63
2023-02-06T00:19:00.623Z,6.43
2023-02-06T00:21:28.851Z,5.88
2023-02-06T00:23:57.802Z,6.60
2023-02-06T00:26:25.527Z,5.70
2023-02-06T00:28:52.426Z,5.13
2023-02-06T00:31:19.405Z,6.68
2023-02-06T00:33:46.461Z,5.10
2023-02-06T00:36:13.353Z,6.22
2023-02-06T00:38:40.348Z,6.13
2023-02-06T00:41:07.296Z,6.50
2023-02-06T00:43:34.349Z,5.63
2023-02-06T00:46:01.205Z,5.53
2023-02-06T00:48:28.123Z,5.97
2023-02-06T00:50:55.620Z,5.20
2023-02-06T00:53:22.733Z,6.00
2023-02-06T00:55:49.585Z,5.60
2023-02-06T00:58:16.454Z,6.45
2023-02-06T01:00:43.683Z,5.28
2023-02-06T01:03:10.616Z,6.65
2023-02-06T01:05:37.782Z,5.78
2023-02-06T01:08:05.002Z,5.93
2023-02-06T01:10:32.483Z,5.47
2023-02-06T01:12:59.737Z,5.85
2023-02-06T01:15:26.831Z,6.63
2023-02-06T01:17:53.672Z,6.40
2023-02-06T01:20:21.614Z,5.13
2023-02-06T01:22:48.719Z,7.00
2023-02-06T01:25:15.579Z,6.38
2023-02-06T01:27:42.430Z,7.28
2023-02-06T01:30:10.366Z,5.55
2023-02-06T01:32:38.822Z,5.38
2023-02-06T01:35:07.271Z,5.82
2023-02-06T01:37:34.664Z,6.68
2023-02-06T01:40:01.662Z,6.20
2023-02-06T01:42:28.704Z,7.78
2023-02-06T01:45:26.846Z,6.72
2023-02-06T01:47:59.542Z,5.50
2023-02-06T01:50:27.941Z,6.30
2023-02-06T01:52:55.094Z,5.45
2023-02-06T01:55:21.937Z,6.43
2023-02-06T01:57:49.105Z,6.40
2023-02-06T02:00:16.158Z,5.85
2023-02-06T02:02:45.223Z,6.03
2023-02-06T02:05:13.307Z,7.68
2023-02-06T02:08:01.079Z,6.65
2023-02-06T02:10:30.059Z,5.82
2023-02-06T02:12:57.373Z,6.00
2023-02-06T02:15:38.152Z,6.00
2023-02-06T02:18:28.993Z,6.78
2023-02-06T02:21:15.169Z,7.47
2023-02-06T02:24:00.558Z,6.10
2023-02-06T02:26:49.055Z,6.30
2023-02-06T02:29:27.845Z,6.00
2023-02-06T02:32:08.376Z,5.60
2023-02-06T02:35:12.606Z,6.38
2023-02-06T02:37:55.956Z,5.60
2023-02-06T02:40:40.992Z,5.20
2023-02-06T02:43:46.543Z,5.90
2023-02-06T02:46:38.472Z,6.80
2023-02-06T02:49:11.292Z,5.50
2023-02-06T02:51:39.540Z,5.55
2023-02-06T02:54:06.409Z,5.72
2023-02-06T02:56:33.827Z,5.25
2023-02-06T02:59:32.571Z,5.28
2023-02-06T03:02:04.570Z,6.57
2023-02-06T03:04:37.992Z,5.35
2023-02-06T03:07:21.109Z,5.97
2023-02-06T03:10:01.839Z,5.82
2023-02-06T03:12:37.822Z,5.32
2023-02-06T03:15:13.773Z,5.95
2023-02-06T03:18:05.881Z,5.82
2023-02-06T03:20:34.993Z,6.47
2023-02-06T03:23:03.901Z,6.18
2023-02-06T03:25:38.834Z,7.28
2023-02-06T03:28:12.059Z,6.57
2023-02-06T03:30:42.180Z,5.10
2023-02-06T03:33:13.657Z,6.53
2023-02-06T03:35:41.057Z,7.15
2023-02-06T03:38:09.261Z,6.95
2023-02-06T03:40:37.498Z,6.65
2023-02-06T03:43:05.797Z,5.47
2023-02-06T03:45:38.020Z,7.43
2023-02-06T03:48:11.611Z,6.10
2023-02-06T03:50:42.585Z,5.20
2023-02-06T03:53:12.216Z,5.28
2023-02-06T03:55:41.134Z,5.75
2023-02-06T03:58:12.523Z,5.30
2023-02-06T04:00:42.568Z,5.35
2023-02-06T04:03:11.257Z,5.43
2023-02-06T04:05:38.741Z,6.55
2023-02-06T04:08:06.379Z,5.90
2023-02-06T04:10:33.606Z,6.03
2023-02-06T04:13:00.487Z,5.43
2023-02-06T04:15:27.308Z,6.65
2023-02-06T04:18:00.489Z,7.32
2023-02-06T04:20:29.149Z,7.07
2023-02-06T04:22:56.287Z,7.05
2023-02-06T04:25:23.224Z,7.80
2023-02-06T04:27:50.373Z,7.88
2023-02-06T04:30:18.350Z,6.00
2023-02-06T04:32:45.390Z,5.78
2023-02-06T04:35:12.604Z,7.38
2023-02-06T04:37:39.558Z,6.45
2023-02-06T04:40:06.956Z,6.78
2023-02-06T04:42:33.902Z,6.97
2023-02-06T04:45:00.680Z,9.75
2023-02-06T04:47:27.545Z,7.57
2023-02-06T04:49:55.912Z,9.50
2023-02-06T04:52:22.753Z,7.50
2023-02-06T04:54:49.616Z,7.60
2023-02-06T04:57:16.542Z,7.25
2023-02-06T04:59:43.304Z,6.28
2023-02-06T05:02:10.139Z,6.07
2023-02-06T05:04:39.030Z,7.13
2023-02-06T05:07:06.169Z,7.95
2023-02-06T05:09:32.950Z,7.30
2023-02-06T05:11:59.965Z,8.43
2023-02-06T05:14:26.893Z,6.28
2023-02-06T05:16:53.833Z,7.18
2023-02-06T05:19:20.790Z,7.85
2023-02-06T05:21:47.694Z,6.43
2023-02-06T05:24:14.572Z,5.82
2023-02-06T05:26:41.648Z,6.90
2023-02-06T05:29:08.605Z,6.65
2023-02-06T05:31:35.665Z,7.35
2023-02-06T05:34:02.965Z,7.30
2023-02-06T05:36:29.825Z,7.40
2023-02-06T05:38:56.719Z,7.75
2023-02-06T05:41:23.887Z,8.57
2023-02-06T05:43:50.707Z,8.27
2023-02-06T05:46:17.641Z,8.43
2023-02-06T05:48:44.537Z,8.82
2023-02-06T05:51:11.707Z,8.10
2023-02-06T05:53:38.530Z,9.00
2023-02-06T05:56:05.887Z,7.35
2023-02-06T05:58:32.926Z,6.78
2023-02-06T06:00:59.807Z,6.80
2023-02-06T06:03:26.942Z,7.05
2023-02-06T06:05:54.189Z,6.95
2023-02-06T06:08:21.769Z,7.07
2023-02-06T06:10:52.901Z,7.95
2023-02-06T06:13:19.894Z,10.05
2023-02-06T06:15:51.755Z,6.18
2023-02-06T06:18:20.165Z,8.15
2023-02-06T06:20:47.559Z,8.27
2023-02-06T06:23:14.508Z,8.43
2023-02-06T06:25:41.386Z,6.85
2023-02-06T06:28:08.197Z,7.63
2023-02-06T06:30:35.811Z,8.07
2023-02-06T06:33:02.699Z,6.93
2023-02-06T06:35:29.679Z,8.60
2023-02-06T06:37:56.523Z,7.35
2023-02-06T06:40:23.456Z,7.65
2023-02-06T06:42:50.531Z,6.80
2023-02-06T06:45:17.596Z,7.85
2023-02-06T06:47:44.585Z,8.75
2023-02-06T06:50:11.500Z,7.82
2023-02-06T06:52:38.355Z,9.45
2023-02-06T06:55:05.550Z,8.75
2023-02-06T06:57:32.867Z,10.57
2023-02-06T06:59:59.756Z,8.85
2023-02-06T07:02:28.684Z,10.43
2023-02-06T07:04:55.862Z,9.50
2023-02-06T07:07:22.905Z,8.65
2023-02-06T07:09:49.758Z,10.30
2023-02-06T07:12:16.657Z,10.85
2023-02-06T07:14:43.582Z,11.70
2023-02-06T07:17:10.581Z,12.35
2023-02-06T07:19:37.522Z,12.00
2023-02-06T07:22:04.497Z,11.40
2023-02-06T07:24:31.562Z,13.32
2023-02-06T07:26:58.466Z,15.73
2023-02-06T07:29:25.788Z,11.85
2023-02-06T07:31:52.874Z,12.35
2023-02-06T07:34:19.779Z,13.50
2023-02-06T07:36:47.332Z,13.05
2023-02-06T07:39:14.292Z,13.55
2023-02-06T07:41:41.134Z,13.38
2023-02-06T07:44:08.018Z,11.93
2023-02-06T07:46:34.922Z,11.45
2023-02-06T07:49:01.955Z,11.30
2023-02-06T07:51:29.316Z,11.93
2023-02-06T07:53:56.347Z,13.80
2023-02-06T07:56:25.989Z,11.15
2023-02-06T07:58:54.848Z,11.80
2023-02-06T08:01:23.106Z,12.73
2023-02-06T08:03:54.488Z,11.57
2023-02-06T08:06:24.485Z,13.10
2023-02-06T08:08:52.042Z,12.85
2023-02-06T08:11:20.864Z,13.05
2023-02-06T08:13:48.672Z,14.63
2023-02-06T08:16:18.466Z,14.90
2023-02-06T08:18:45.591Z,15.27
2023-02-06T08:21:16.351Z,16.05
2023-02-06T08:23:43.914Z,12.98
2023-02-06T08:26:17.096Z,11.57
2023-02-06T08:28:45.895Z,11.73
2023-02-06T08:31:20.150Z,13.27
2023-02-06T08:33:47.551Z,14.30
2023-02-06T08:36:15.267Z,13.48
2023-02-06T08:38:44.382Z,13.45
2023-02-06T08:41:17.528Z,13.02
2023-02-06T08:43:46.644Z,14.80
2023-02-06T08:46:14.298Z,14.52
2023-02-06T08:48:41.250Z,11.70
2023-02-06T08:51:09.499Z,10.93
2023-02-06T08:53:37.250Z,10.85
2023-02-06T08:56:09.985Z,13.10
2023-02-06T08:58:37.757Z,12.85
2023-02-06T09:01:19.084Z,11.95
2023-02-06T09:03:46.777Z,11.20
2023-02-06T09:06:14.782Z,9.57
2023-02-06T09:08:42.517Z,9.02
2023-02-06T09:11:15.679Z,9.95
2023-02-06T09:13:44.530Z,9.68
2023-02-06T09:16:12.186Z,11.35
2023-02-06T09:18:39.706Z,10.48
2023-02-06T09:21:16.828Z,10.60
2023-02-06T09:23:49.417Z,9.88
2023-02-06T09:26:21.784Z,8.13
2023-02-06T09:28:54.886Z,8.45
2023-02-06T09:31:21.819Z,8.55
2023-02-06T09:33:48.810Z,8.98
2023-02-06T09:36:18.858Z,8.82
2023-02-06T09:38:48.573Z,8.48
2023-02-06T09:41:44.948Z,8.10
2023-02-06T09:44:44.113Z,8.18
2023-02-06T09:47:34.488Z,8.52
2023-02-06T09:50:07.604Z,8.60
2023-02-06T09:52:59.590Z,9.23
2023-02-06T09:55:42.784Z,7.97
2023-02-06T09:58:22.423Z,7.80
2023-02-06T10:01:06.246Z,8.23
2023-02-06T10:04:00.621Z,6.97
2023-02-06T10:06:34.760Z,6.28
2023-02-06T10:09:35.616Z,7.68
2023-02-06T10:12:13.290Z,7.80
2023-02-06T10:14:52.884Z,7.25
2023-02-06T10:17:30.393Z,6.68
2023-02-06T10:20:19.291Z,5.28
2023-02-06T10:23:04.972Z,7.30
2023-02-06T10:25:36.240Z,7.15
2023-02-06T10:28:17.815Z,7.40
2023-02-06T10:30:59.504Z,5.97
2023-02-06T10:33:33.326Z,5.93
2023-02-06T10:36:23.481Z,8.02
2023-02-06T10:39:40.897Z,6.78
2023-02-06T10:42:32.380Z,5.55
2023-02-06T10:45:19.043Z,5.78
2023-02-06T10:47:59.306Z,6.70
2023-02-06T10:50:34.919Z,7.25
2023-02-06T10:53:11.596Z,10.18
2023-02-06T10:55:49.573Z,6.47
2023-02-06T10:58:22.350Z,5.68
2023-02-06T11:00:51.347Z,5.95
2023-02-06T11:03:21.638Z,6.50
2023-02-06T11:05:50.125Z,4.95
2023-02-06T11:08:26.578Z,6.18
2023-02-06T11:10:53.671Z,5.05
2023-02-06T11:13:29.843Z,5.72
2023-02-06T11:18:35.229Z,5.20
2023-02-06T11:21:02.644Z,6.70
2023-02-06T11:23:31.701Z,5.53
2023-02-06T11:26:15.647Z,5.38
2023-02-06T11:28:58.776Z,5.90
2023-02-06T11:31:51.168Z,5.88
2023-02-06T11:34:26.988Z,7.53
2023-02-06T11:36:59.691Z,6.35
2023-02-06T11:39:30.790Z,5.53
2023-02-06T11:42:07.062Z,5.60
2023-02-06T11:44:42.617Z,5.53
2023-02-06T11:47:32.693Z,5.68
2023-02-06T11:50:14.796Z,4.93
2023-02-06T11:52:46.647Z,3.85
2023-02-06T11:55:24.726Z,4.45
2023-02-06T11:58:12.279Z,10.48
2023-02-06T12:00:54.791Z,5.70
2023-02-06T12:03:50.338Z,4.65
2023-02-06T12:09:09.714Z,4.50
2023-02-06T12:11:46.431Z,4.78
2023-02-06T12:14:34.935Z,4.82
2023-02-06T12:17:04.863Z,3.88
2023-02-06T12:19:44.692Z,4.13
2023-02-06T12:22:17.463Z,3.92
2023-02-06T12:24:48.338Z,3.58
2023-02-06T12:27:18.137Z,4.28
2023-02-06T12:29:57.759Z,3.40
2023-02-06T12:32:43.466Z,3.75
2023-02-06T12:35:21.861Z,3.03
2023-02-06T12:37:58.224Z,3.70
2023-02-06T12:40:39.840Z,3.60
2023-02-06T12:43:15.174Z,3.92
2023-02-06T12:45:57.487Z,4.90
2023-02-06T12:48:27.381Z,3.33
2023-02-06T12:51:20.802Z,3.05
2023-02-06T12:54:03.353Z,3.50
2023-02-06T12:56:42.687Z,4.78
2023-02-06T12:59:09.480Z,6.03
2023-02-06T13:02:01.026Z,3.50
2023-02-06T13:04:32.703Z,3.00
2023-02-06T13:07:14.666Z,3.28
2023-02-06T13:09:52.169Z,2.40
2023-02-06T13:12:33.831Z,2.70
2023-02-06T13:15:05.654Z,2.33
2023-02-06T13:17:36.629Z,2.20
2023-02-06T13:20:17.034Z,3.30
2023-02-06T13:22:49.597Z,2.65
2023-02-06T13:25:28.658Z,3.03
2023-02-06T13:28:01.378Z,3.28
2023-02-06T13:30:31.540Z,2.45
2023-02-06T13:33:23.920Z,2.45
2023-02-06T13:36:05.608Z,2.47
2023-02-06T13:38:35.192Z,2.58
2023-02-06T13:41:14.396Z,2.80
2023-02-06T13:44:15.102Z,2.50
2023-02-06T13:47:08.140Z,2.55
2023-02-06T13:50:08.726Z,3.05
2023-02-06T13:53:13.490Z,2.70
2023-02-06T13:55:52.544Z,4.10
2023-02-06T13:58:31.237Z,3.38
2023-02-06T14:00:59.871Z,2.90
2023-02-06T14:03:30.572Z,2.85
2023-02-06T14:06:34.612Z,3.13
2023-02-06T14:09:04.409Z,3.55
2023-02-06T14:11:39.824Z,4.00
2023-02-06T14:14:17.196Z,3.70
2023-02-06T14:17:03.537Z,3.65
2023-02-06T14:19:53.303Z,4.25
2023-02-06T14:22:20.236Z,4.95
2023-02-06T14:25:20.168Z,4.15
2023-02-06T14:28:12.549Z,3.58
2023-02-06T14:30:59.210Z,4.50
2023-02-06T14:33:35.891Z,6.47
2023-02-06T14:36:39.121Z,4.63
2023-02-06T14:39:40.787Z,5.80
2023-02-06T14:42:31.848Z,4.75
2023-02-06T14:45:21.737Z,4.55
2023-02-06T14:47:49.189Z,4.70
2023-02-06T14:50:35.018Z,5.20
2023-02-06T14:55:41.049Z,4.20
2023-02-06T15:00:54.336Z,4.18
2023-02-06T15:03:24.663Z,4.15
2023-02-06T15:06:07.230Z,4.78
2023-02-06T15:08:34.339Z,4.40
2023-02-06T15:11:18.349Z,5.88
2023-02-06T15:13:54.064Z,5.60
2023-02-06T15:16:21.521Z,5.30
2023-02-06T15:18:49.108Z,5.05
2023-02-06T15:21:19.314Z,4.72
2023-02-06T15:24:12.784Z,4.82
2023-02-06T15:26:55.935Z,5.53
2023-02-06T15:29:26.859Z,5.88
2023-02-06T15:31:56.715Z,4.90
2023-02-06T15:34:25.044Z,4.53
2023-02-06T15:36:52.661Z,4.75
2023-02-06T15:39:19.908Z,4.07
2023-02-06T15:41:50.518Z,4.03
2023-02-06T15:44:33.185Z,5.32
2023-02-06T15:47:04.603Z,3.92
2023-02-06T15:49:38.070Z,3.17
2023-02-06T15:52:05.606Z,3.28
2023-02-06T15:54:33.944Z,3.72
2023-02-06T15:57:27.966Z,3.30
2023-02-06T15:59:56.987Z,4.40
2023-02-06T16:02:31.598Z,3.58
2023-02-06T16:04:58.744Z,3.65
2023-02-06T16:07:32.444Z,4.05
2023-02-06T16:10:08.090Z,4.10
2023-02-06T16:12:37.493Z,3.78
2023-02-06T16:15:32.455Z,3.25
2023-02-06T16:18:01.820Z,3.80
2023-02-06T16:20:37.267Z,4.68
2023-02-06T16:23:29.351Z,4.03
2023-02-06T16:26:14.456Z,4.65
2023-02-06T16:28:55.413Z,3.75
2023-02-06T16:31:22.977Z,3.25
2023-02-06T16:33:52.684Z,3.60
2023-02-06T16:36:22.197Z,3.38
2023-02-06T16:39:02.816Z,3.50
2023-02-06T16:41:37.643Z,3.22
2023-02-06T16:44:10.375Z,4.28
2023-02-06T16:46:37.242Z,3.65
2023-02-06T16:49:15.414Z,3.55
2023-02-06T16:51:44.342Z,4.50
2023-02-06T16:54:27.300Z,4.30
2023-02-06T16:56:57.332Z,4.15
2023-02-06T16:59:24.528Z,4.00
2023-02-06T17:01:51.486Z,4.70
2023-02-06T17:04:18.336Z,4.47
2023-02-06T17:06:45.343Z,4.88
2023-02-06T17:09:17.330Z,5.18
2023-02-06T17:11:44.440Z,4.28
2023-02-06T17:14:11.831Z,4.35
2023-02-06T17:16:38.855Z,5.68
2023-02-06T17:19:05.697Z,5.10
2023-02-06T17:21:33.224Z,5.10
2023-02-06T17:24:00.411Z,5.32
2023-02-06T17:26:27.372Z,7.18
2023-02-06T17:28:54.498Z,5.30
2023-02-06T17:31:21.905Z,5.40
2023-02-06T17:33:49.114Z,4.38
2023-02-06T17:36:29.305Z,4.90
2023-02-06T17:38:59.066Z,4.70
2023-02-06T17:41:27.451Z,5.30
2023-02-06T17:43:54.613Z,5.57
2023-02-06T17:46:21.589Z,5.32
2023-02-06T17:48:48.748Z,5.63
2023-02-06T17:51:15.807Z,5.60
2023-02-06T17:53:42.661Z,7.50
2023-02-06T17:56:12.920Z,6.28
2023-02-06T17:58:43.448Z,6.10
2023-02-06T18:01:12.458Z,5.90
2023-02-06T18:03:39.798Z,5.82
2023-02-06T18:06:06.942Z,6.95
2023-02-06T18:08:33.987Z,7.85
2023-02-06T18:11:00.943Z,6.40
2023-02-06T18:13:28.739Z,6.30
2023-02-06T18:15:57.883Z,6.47
2023-02-06T18:18:26.099Z,6.45
2023-02-06T18:20:53.112Z,6.03
2023-02-06T18:23:20.067Z,6.63
2023-02-06T18:25:46.921Z,6.32
2023-02-06T18:28:14.762Z,7.57
2023-02-06T18:30:42.211Z,6.57
2023-02-06T18:33:09.476Z,6.65
2023-02-06T18:35:41.197Z,7.60
2023-02-06T18:38:09.921Z,7.72
2023-02-06T18:40:38.766Z,8.10
2023-02-06T18:43:06.893Z,8.13
2023-02-06T18:45:36.165Z,7.30
2023-02-06T18:48:04.679Z,7.78
2023-02-06T18:50:32.339Z,8.57
2023-02-06T18:52:59.469Z,7.65
2023-02-06T18:55:26.476Z,7.60
2023-02-06T18:57:53.804Z,8.23
2023-02-06T19:00:22.598Z,7.45
2023-02-06T19:02:50.267Z,7.68
2023-02-06T19:05:17.416Z,8.13
2023-02-06T19:07:49.518Z,7.57
2023-02-06T19:10:16.839Z,7.88
2023-02-06T19:12:44.246Z,7.45
2023-02-06T19:15:11.805Z,7.95
2023-02-06T19:17:38.996Z,7.95
2023-02-06T19:20:06.540Z,9.00
2023-02-06T19:22:37.881Z,8.68
2023-02-06T19:25:10.216Z,8.60
2023-02-06T19:27:38.512Z,9.93
2023-02-06T19:30:07.883Z,8.32
2023-02-06T19:32:35.293Z,9.70
2023-02-06T19:35:03.388Z,9.77
2023-02-06T19:37:30.173Z,10.18
2023-02-06T19:39:57.397Z,10.43
2023-02-06T19:42:24.443Z,10.57
2023-02-06T19:44:53.959Z,10.45
2023-02-06T19:47:21.213Z,10.27
2023-02-06T19:49:51.452Z,11.65
2023-02-06T19:52:18.629Z,13.30
2023-02-06T19:54:47.790Z,14.10
2023-02-06T19:57:16.031Z,13.27
2023-02-06T19:59:43.048Z,13.90
2023-02-06T20:02:14.484Z,13.10
2023-02-06T20:04:42.182Z,13.75
2023-02-06T20:07:09.028Z,14.40
2023-02-06T20:09:41.099Z,14.40
2023-02-06T20:12:10.216Z,15.75
2023-02-06T20:14:37.154Z,14.98
2023-02-06T20:17:04.703Z,18.33
2023-02-06T20:19:32.210Z,13.90
2023-02-06T20:22:00.653Z,15.40
2023-02-06T20:24:30.225Z,13.68
2023-02-06T20:26:59.825Z,14.20
2023-02-06T20:29:33.940Z,14.75
2023-02-06T20:32:01.346Z,13.80
2023-02-06T20:34:28.809Z,15.07
2023-02-06T20:36:56.903Z,13.40
2023-02-06T20:39:24.718Z,14.23
2023-02-06T20:41:51.977Z,14.32
2023-02-06T20:44:19.919Z,16.05
2023-02-06T20:46:47.468Z,17.85
2023-02-06T20:49:22.949Z,19.67
2023-02-06T20:51:50.623Z,21.48
2023-02-06T20:54:19.327Z,16.35
2023-02-06T20:56:46.493Z,17.40
2023-02-06T20:59:15.778Z,17.05
2023-02-06T21:01:43.267Z,21.40
2023-02-06T21:04:12.273Z,21.83
2023-02-06T21:06:39.611Z,21.17
2023-02-06T21:09:08.270Z,19.80
2023-02-06T21:11:39.779Z,20.65
2023-02-06T21:14:07.952Z,17.40
2023-02-06T21:16:37.638Z,17.15
2023-02-06T21:19:07.497Z,15.85
2023-02-06T21:21:34.820Z,15.98
2023-02-06T21:24:01.695Z,16.48
2023-02-06T21:26:28.817Z,16.65
2023-02-06T21:28:56.188Z,17.77
2023-02-06T21:31:25.806Z,16.65
2023-02-06T21:33:53.124Z,14.32
2023-02-06T21:36:21.208Z,15.57
2023-02-06T21:38:48.175Z,14.73
2023-02-06T21:41:18.242Z,18.02
2023-02-06T21:43:45.909Z,15.18
2023-02-06T21:46:13.619Z,14.68
2023-02-06T21:48:41.355Z,14.25
2023-02-06T21:51:14.236Z,13.18
2023-02-06T21:53:42.250Z,13.15
2023-02-06T21:56:13.562Z,14.82
2023-02-06T21:58:40.371Z,15.43
2023-02-06T22:01:08.897Z,16.65
2023-02-06T22:03:36.253Z,22.58
2023-02-06T22:06:08.767Z,17.42
2023-02-06T22:08:40.701Z,16.05
2023-02-06T22:11:16.007Z,14.35
2023-02-06T22:13:43.336Z,14.70
2023-02-06T22:16:11.533Z,13.18
2023-02-06T22:18:38.925Z,13.55
2023-02-06T22:21:08.535Z,13.80
2023-02-06T22:23:36.372Z,14.23
2023-02-06T22:26:03.892Z,11.70
2023-02-06T22:28:31.406Z,13.52
2023-02-06T22:31:06.252Z,11.45
2023-02-06T22:33:33.468Z,11.00
2023-02-06T22:36:03.762Z,11.95
2023-02-06T22:38:30.638Z,11.70
2023-02-06T22:41:03.413Z,13.07
2023-02-06T22:43:31.380Z,13.65
2023-02-06T22:45:58.414Z,12.25
2023-02-06T22:48:25.675Z,14.05
2023-02-06T22:50:55.555Z,13.02
2023-02-06T22:53:29.707Z,14.27
2023-02-06T22:56:24.180Z,14.23
2023-02-06T22:58:51.875Z,18.42
2023-02-06T23:01:21.494Z,16.67
2023-02-06T23:03:52.342Z,16.85
2023-02-06T23:06:19.438Z,15.57
2023-02-06T23:08:46.615Z,15.43
2023-02-06T23:11:15.235Z,15.35
2023-02-06T23:13:42.516Z,14.85
2023-02-06T23:16:10.251Z,16.83
2023-02-06T23:18:37.571Z,16.85
2023-02-06T23:21:10.826Z,17.17
2023-02-06T23:23:38.238Z,18.40
2023-02-06T23:26:10.170Z,18.33
2023-02-06T23:28:37.777Z,18.52
2023-02-06T23:31:05.758Z,19.67
2023-02-06T23:33:33.383Z,19.15
2023-02-06T23:36:08.305Z,18.77
2023-02-06T23:38:35.658Z,18.60
2023-02-06T23:41:14.136Z,18.75
2023-02-06T23:43:41.633Z,19.10
2023-02-06T23:46:12.133Z,19.23
2023-02-06T23:48:39.936Z,20.10
2023-02-06T23:51:06.967Z,19.45
2023-02-06T23:53:33.955Z,21.10
2023-02-06T23:56:00.915Z,19.85
2023-02-06T23:58:27.895Z,19.42
